Time;durP1;ratioP1;P1;durP2;ratioP2;P2;SDS_P1;SDS_P2;PMS_P1;PMS_P2;Temp;Humidity;BMP_temperature;BMP_pressure;BME280_temperature;BME280_humidity;BME280_pressure;Samples;Min_cycle;Max_cycle;Signal;HPM_P1;HPM_P2
2022/09/05 00:00:07;;;;;;;4.30;3.00;;;22.40;59.70;;;;;;5018036;28;20197;-73
2022/09/05 00:02:58;;;;;;;4.78;3.53;;;22.40;59.80;;;;;;5018210;28;20196;-73
2022/09/05 00:05:36;;;;;;;4.15;3.22;;;22.40;59.80;;;;;;5001789;28;20200;-73
2022/09/05 00:08:07;;;;;;;4.60;3.08;;;22.40;59.80;;;;;;5017854;28;20200;-73
2022/09/05 00:10:41;;;;;;;6.03;3.40;;;22.40;59.80;;;;;;5017968;28;20227;-73
2022/09/05 00:13:11;;;;;;;3.40;2.97;;;22.40;59.80;;;;;;5018760;28;20266;-73
2022/09/05 00:15:44;;;;;;;3.80;3.13;;;22.40;59.80;;;;;;5035664;28;20196;-73
2022/09/05 00:18:44;;;;;;;3.35;3.05;;;22.40;59.80;;;;;;5018025;28;20199;-73
2022/09/05 00:21:17;;;;;;;3.47;2.88;;;22.40;59.80;;;;;;5012855;28;20220;-73
2022/09/05 00:23:48;;;;;;;3.42;3.08;;;22.40;59.80;;;;;;5035684;28;20184;-73
2022/09/05 00:26:22;;;;;;;3.67;2.70;;;22.40;59.90;;;;;;5002746;28;20188;-73
2022/09/05 00:28:53;;;;;;;3.80;2.72;;;22.30;59.90;;;;;;5018523;28;20246;-73
2022/09/05 00:31:29;;;;;;;3.50;2.83;;;22.30;59.90;;;;;;5018181;28;20216;-72
2022/09/05 00:34:03;;;;;;;2.97;2.67;;;22.30;59.90;;;;;;4985760;28;20195;-73
2022/09/05 00:36:34;;;;;;;2.90;2.67;;;22.30;59.80;;;;;;5017246;28;20184;-73
2022/09/05 00:39:01;;;;;;;3.85;2.55;;;22.30;59.90;;;;;;5017497;28;20554;-73
2022/09/05 00:41:29;;;;;;;2.90;2.70;;;22.30;59.90;;;;;;5017492;28;20316;-73
2022/09/05 00:43:56;;;;;;;3.17;2.65;;;22.30;59.90;;;;;;5000954;28;20192;-73
2022/09/05 00:46:27;;;;;;;2.90;2.55;;;22.30;59.90;;;;;;5002105;28;20203;-73
2022/09/05 00:48:57;;;;;;;2.50;2.28;;;22.30;59.90;;;;;;5017242;28;20219;-73
2022/09/05 00:51:30;;;;;;;3.55;2.75;;;22.30;59.90;;;;;;5017297;28;20218;-73
2022/09/05 00:54:18;;;;;;;3.50;2.67;;;22.30;59.90;;;;;;5017471;28;20200;-73
2022/09/05 00:56:53;;;;;;;2.70;2.33;;;22.30;59.90;;;;;;5004870;28;20200;-73
2022/09/05 01:00:02;;;;;;;2.65;2.45;;;22.30;59.90;;;;;;5111557;27;20545;-59
2022/09/05 01:02:38;;;;;;;3.00;2.35;;;22.30;59.90;;;;;;5111501;28;20255;-59
2022/09/05 01:05:07;;;;;;;3.03;2.50;;;22.20;59.80;;;;;;5110125;28;20209;-59
2022/09/05 01:07:42;;;;;;;2.83;2.33;;;22.20;59.90;;;;;;5111265;28;20208;-59
2022/09/05 01:10:19;;;;;;;2.50;2.30;;;22.20;60.60;;;;;;5110003;28;20221;-59
2022/09/05 01:13:15;;;;;;;2.20;2.00;;;22.20;59.90;;;;;;5110028;28;20217;-59
2022/09/05 01:15:49;;;;;;;2.58;2.17;;;22.20;59.90;;;;;;5064294;28;20213;-59
2022/09/05 01:18:23;;;;;;;3.35;2.40;;;22.20;59.90;;;;;;5110085;28;20231;-59
2022/09/05 01:21:07;;;;;;;2.40;2.20;;;22.20;59.90;;;;;;5111436;28;20265;-59
2022/09/05 01:23:55;;;;;;;2.40;2.20;;;22.20;59.90;;;;;;5110406;28;20196;-59
2022/09/05 01:26:47;;;;;;;2.60;2.40;;;22.20;59.90;;;;;;5080517;28;20571;-59
2022/09/05 01:29:19;;;;;;;2.50;2.20;;;22.10;60.70;;;;;;5106522;28;20205;-59
2022/09/05 01:31:57;;;;;;;2.70;2.50;;;22.20;60.00;;;;;;5111642;28;20184;-59
2022/09/05 01:34:27;;;;;;;2.40;2.20;;;22.20;60.00;;;;;;5079447;22;20234;-64
2022/09/05 01:36:57;;;;;;;2.67;2.17;;;22.10;59.90;;;;;;5050014;28;20294;-66
2022/09/05 01:39:29;;;;;;;2.30;2.10;;;22.10;60.00;;;;;;5050238;28;20207;-67
2022/09/05 01:41:59;;;;;;;2.30;2.10;;;22.10;60.00;;;;;;5049994;28;20180;-65
2022/09/05 01:44:31;;;;;;;2.28;2.13;;;22.10;60.00;;;;;;5048644;28;20696;-66
2022/09/05 01:47:05;;;;;;;2.38;2.17;;;22.10;60.00;;;;;;5048564;28;20216;-65
2022/09/05 01:49:42;;;;;;;2.55;2.17;;;22.10;60.00;;;;;;5049311;28;20192;-67
2022/09/05 01:52:23;;;;;;;2.83;2.03;;;22.10;60.00;;;;;;5048812;28;20245;-66
2022/09/05 01:55:06;;;;;;;2.33;2.10;;;22.10;60.00;;;;;;5049769;28;20184;-65
2022/09/05 01:57:38;;;;;;;3.08;1.90;;;22.10;60.00;;;;;;5048292;28;20226;-65
2022/09/05 02:00:10;;;;;;;2.22;1.92;;;22.10;60.00;;;;;;5048593;28;20286;-65
2022/09/05 02:02:47;;;;;;;2.20;2.00;;;22.10;60.00;;;;;;5048718;28;20195;-65
2022/09/05 02:05:22;;;;;;;2.53;2.33;;;22.00;59.90;;;;;;5048617;28;20722;-65
2022/09/05 02:08:05;;;;;;;2.33;2.13;;;22.10;60.00;;;;;;5048521;28;20211;-65
2022/09/05 02:10:47;;;;;;;2.40;2.22;;;22.00;60.00;;;;;;5039257;28;20243;-65
2022/09/05 02:13:21;;;;;;;2.30;2.10;;;22.00;60.00;;;;;;5035098;28;20192;-66
2022/09/05 02:15:51;;;;;;;2.40;2.20;;;22.00;60.00;;;;;;5036352;28;20208;-66
2022/09/05 02:18:22;;;;;;;2.10;1.95;;;22.00;60.00;;;;;;5034937;28;20248;-65
2022/09/05 02:20:52;;;;;;;2.20;2.00;;;22.00;60.10;;;;;;5034858;28;20720;-66
2022/09/05 02:23:33;;;;;;;2.00;1.90;;;22.00;60.10;;;;;;5035079;28;20764;-66
2022/09/05 02:26:03;;;;;;;1.90;1.73;;;22.00;60.10;;;;;;5034658;28;20238;-65
2022/09/05 02:28:33;;;;;;;2.50;2.30;;;22.00;60.10;;;;;;5034644;28;20188;-66
2022/09/05 02:31:04;;;;;;;2.25;2.05;;;22.00;60.10;;;;;;5035838;28;20188;-66
2022/09/05 02:33:34;;;;;;;2.10;1.90;;;22.00;60.10;;;;;;5035652;28;20196;-65
2022/09/05 02:36:04;;;;;;;2.03;1.92;;;22.00;60.10;;;;;;5035867;28;20299;-66
2022/09/05 02:38:46;;;;;;;1.80;1.65;;;22.00;60.00;;;;;;5035933;28;20672;-65
2022/09/05 02:41:19;;;;;;;2.50;1.77;;;21.90;60.00;;;;;;5034606;28;20627;-66
2022/09/05 02:43:48;;;;;;;1.92;1.83;;;21.90;60.00;;;;;;5035568;28;20235;-65
2022/09/05 02:46:19;;;;;;;2.40;1.95;;;22.00;60.10;;;;;;5035570;28;20588;-65
2022/09/05 02:48:52;;;;;;;2.05;1.85;;;21.90;60.00;;;;;;5035017;28;20196;-66
2022/09/05 02:51:21;;;;;;;2.05;1.80;;;21.90;60.00;;;;;;5034219;28;20192;-65
2022/09/05 02:53:50;;;;;;;1.90;1.77;;;21.90;60.00;;;;;;5035447;28;20192;-65
2022/09/05 02:56:45;;;;;;;1.83;1.70;;;21.90;60.00;;;;;;5035248;28;20220;-65
2022/09/05 02:59:15;;;;;;;1.83;1.73;;;21.90;60.10;;;;;;5018221;28;20275;-65
2022/09/05 03:02:01;;;;;;;1.70;1.60;;;21.90;60.00;;;;;;5033980;28;20192;-65
2022/09/05 03:04:32;;;;;;;1.90;1.80;;;21.90;60.10;;;;;;5033955;28;20223;-65
2022/09/05 03:07:08;;;;;;;1.80;1.70;;;21.90;60.10;;;;;;5035325;28;20222;-65
2022/09/05 03:09:46;;;;;;;1.95;1.85;;;21.90;60.10;;;;;;5035202;28;20251;-65
2022/09/05 03:12:49;;;;;;;2.25;1.83;;;21.90;60.00;;;;;;5033705;28;20196;-65
2022/09/05 03:15:38;;;;;;;2.03;1.83;;;21.90;59.90;;;;;;5026304;28;20204;-65
2022/09/05 03:18:40;;;;;;;1.80;1.70;;;21.90;59.80;;;;;;5033601;28;20757;-65
2022/09/05 03:21:44;;;;;;;2.47;1.80;;;21.90;59.70;;;;;;5033885;28;20283;-65
2022/09/05 03:24:40;;;;;;;2.30;1.80;;;22.00;59.70;;;;;;5034007;28;20200;-65
2022/09/05 03:27:36;;;;;;;1.90;1.80;;;22.00;59.60;;;;;;5033384;28;20255;-65
2022/09/05 03:30:10;;;;;;;2.15;2.03;;;22.00;59.40;;;;;;5033489;28;20192;-65
2022/09/05 03:33:01;;;;;;;2.78;1.98;;;22.10;59.60;;;;;;5034671;28;20198;-65
2022/09/05 03:35:59;;;;;;;1.98;1.88;;;22.10;59.10;;;;;;5033335;28;20215;-65
2022/09/05 03:38:48;;;;;;;1.90;1.80;;;22.10;59.00;;;;;;5033244;28;20239;-65
2022/09/05 03:41:23;;;;;;;1.60;1.50;;;22.20;58.90;;;;;;5033106;28;20200;-66
2022/09/05 03:44:16;;;;;;;2.22;1.88;;;22.20;58.80;;;;;;5034434;28;20191;-66
2022/09/05 03:47:02;;;;;;;1.90;1.80;;;22.20;58.70;;;;;;5034333;28;20216;-65
2022/09/05 03:50:05;;;;;;;2.13;1.92;;;22.30;58.70;;;;;;5031646;28;20548;-65
2022/09/05 03:52:41;;;;;;;2.00;1.80;;;22.30;58.60;;;;;;5021678;28;20585;-65
2022/09/05 03:55:33;;;;;;;1.95;1.80;;;22.30;58.60;;;;;;5034362;28;20297;-65
2022/09/05 03:58:24;;;;;;;2.55;1.92;;;22.40;58.60;;;;;;5034366;28;20200;-65
2022/09/05 04:01:02;;;;;;;2.90;1.80;;;22.30;58.40;;;;;;5034145;28;20203;-65
2022/09/05 04:03:32;;;;;;;1.77;1.67;;;22.40;58.50;;;;;;5032805;28;20196;-65
2022/09/05 04:06:07;;;;;;;2.03;1.63;;;22.30;58.30;;;;;;5033896;28;20243;-65
2022/09/05 04:08:41;;;;;;;2.17;1.80;;;22.40;58.40;;;;;;5034216;28;20600;-65
2022/09/05 04:11:10;;;;;;;1.95;1.80;;;22.40;58.30;;;;;;5032701;28;20257;-65
2022/09/05 04:13:38;;;;;;;1.90;1.80;;;22.40;58.20;;;;;;5033911;28;20746;-65
2022/09/05 04:16:09;;;;;;;1.90;1.80;;;22.40;58.20;;;;;;5032471;28;20220;-65
2022/09/05 04:18:39;;;;;;;1.88;1.75;;;22.40;58.20;;;;;;5033699;28;20294;-65
2022/09/05 04:21:10;;;;;;;1.70;1.60;;;22.40;58.20;;;;;;5033607;28;20199;-65
2022/09/05 04:23:45;;;;;;;2.20;1.92;;;22.40;58.20;;;;;;5033641;28;20192;-65
2022/09/05 04:26:21;;;;;;;1.83;1.70;;;22.40;58.20;;;;;;5033632;28;20215;-65
2022/09/05 04:28:53;;;;;;;1.80;1.70;;;22.40;58.20;;;;;;5032440;28;20195;-65
2022/09/05 04:31:26;;;;;;;2.08;1.80;;;22.30;58.70;;;;;;5033781;28;20211;-65
2022/09/05 04:34:02;;;;;;;1.58;1.48;;;22.30;58.10;;;;;;5034038;28;20196;-65
2022/09/05 04:36:29;;;;;;;1.83;1.73;;;22.30;58.10;;;;;;5032558;28;20223;-65
2022/09/05 04:39:09;;;;;;;1.98;1.88;;;22.30;58.10;;;;;;5032285;28;20216;-65
2022/09/05 04:41:39;;;;;;;1.80;1.70;;;22.30;58.10;;;;;;5033737;28;20220;-65
2022/09/05 04:44:08;;;;;;;1.70;1.60;;;22.30;58.70;;;;;;5032159;28;20274;-66
2022/09/05 04:46:39;;;;;;;1.65;1.55;;;22.30;58.20;;;;;;5033580;28;20235;-66
2022/09/05 04:49:06;;;;;;;1.90;1.75;;;22.30;58.20;;;;;;5032164;28;20194;-65
2022/09/05 04:52:03;;;;;;;1.83;1.73;;;22.30;58.20;;;;;;5033354;28;20281;-65
2022/09/05 04:54:35;;;;;;;1.80;1.70;;;22.30;58.20;;;;;;5033257;28;20564;-65
2022/09/05 04:57:10;;;;;;;2.00;1.90;;;22.20;58.20;;;;;;5031886;28;20270;-66
2022/09/05 04:59:43;;;;;;;1.85;1.70;;;22.20;58.20;;;;;;5031958;28;20780;-65
2022/09/05 05:02:16;;;;;;;1.83;1.73;;;22.20;58.30;;;;;;5033198;28;20680;-65
2022/09/05 05:04:43;;;;;;;1.77;1.67;;;22.20;58.40;;;;;;5032040;28;20184;-65
2022/09/05 05:07:12;;;;;;;1.95;1.83;;;22.20;58.40;;;;;;5031777;28;20223;-65
2022/09/05 05:09:43;;;;;;;1.88;1.75;;;22.20;58.40;;;;;;5031840;28;20570;-65
2022/09/05 05:12:16;;;;;;;1.70;1.60;;;22.20;58.40;;;;;;5031887;28;20258;-65
2022/09/05 05:14:45;;;;;;;1.90;1.80;;;22.20;58.40;;;;;;5031904;28;20286;-65
2022/09/05 05:17:28;;;;;;;1.80;1.70;;;22.20;58.40;;;;;;5032913;28;20709;-65
2022/09/05 05:19:57;;;;;;;2.72;1.90;;;22.20;58.40;;;;;;5031737;28;20207;-65
2022/09/05 05:22:24;;;;;;;2.75;1.80;;;22.20;58.30;;;;;;5032929;28;20662;-65
2022/09/05 05:24:54;;;;;;;2.08;1.80;;;22.20;58.20;;;;;;5031779;28;20672;-65
2022/09/05 05:27:24;;;;;;;2.38;1.80;;;22.20;58.20;;;;;;5032938;28;20693;-65
2022/09/05 05:29:52;;;;;;;2.83;1.80;;;22.20;58.70;;;;;;5031678;28;20570;-65
2022/09/05 05:32:21;;;;;;;2.17;1.80;;;22.20;58.10;;;;;;5032934;28;20189;-65
2022/09/05 05:34:50;;;;;;;1.70;1.60;;;22.30;58.20;;;;;;5031812;28;20204;-65
2022/09/05 05:37:20;;;;;;;1.90;1.80;;;22.20;58.60;;;;;;5031528;28;20247;-65
2022/09/05 05:39:49;;;;;;;1.80;1.70;;;22.20;58.00;;;;;;5033040;28;20299;-65
2022/09/05 05:42:20;;;;;;;2.05;1.65;;;22.30;58.00;;;;;;5033010;28;20199;-65
2022/09/05 05:44:48;;;;;;;2.00;1.80;;;22.30;58.00;;;;;;5033017;28;20212;-65
2022/09/05 05:47:18;;;;;;;1.83;1.73;;;22.30;57.80;;;;;;5035314;28;20274;-65
2022/09/05 05:49:48;;;;;;;1.60;1.50;;;22.40;57.80;;;;;;5036965;28;20184;-65
2022/09/05 05:52:47;;;;;;;1.90;1.80;;;22.40;57.60;;;;;;5036455;28;20220;-65
2022/09/05 05:55:36;;;;;;;1.60;1.50;;;22.50;57.50;;;;;;5029461;28;20228;-66
2022/09/05 05:58:15;;;;;;;1.80;1.70;;;22.60;57.30;;;;;;5025737;28;20701;-65
2022/09/05 06:01:14;;;;;;;2.20;1.83;;;22.60;57.10;;;;;;5035082;28;20334;-65
2022/09/05 06:04:17;;;;;;;3.25;1.50;;;22.60;56.90;;;;;;5022326;28;20211;-65
2022/09/05 06:06:55;;;;;;;2.22;1.67;;;22.80;56.80;;;;;;5034596;28;20215;-65
2022/09/05 06:09:52;;;;;;;1.63;1.52;;;22.90;56.40;;;;;;5034969;28;20199;-65
2022/09/05 06:13:02;;;;;;;1.80;1.70;;;23.10;56.00;;;;;;5036175;28;20275;-65
2022/09/05 06:16:02;;;;;;;1.73;1.63;;;23.20;55.70;;;;;;5036373;28;20184;-65
2022/09/05 06:18:56;;;;;;;1.80;1.70;;;23.30;55.40;;;;;;5035046;28;20200;-65
2022/09/05 06:22:09;;;;;;;1.83;1.67;;;23.40;55.30;;;;;;5034853;28;20223;-65
2022/09/05 06:25:15;;;;;;;1.80;1.67;;;23.50;55.20;;;;;;4961510;28;20205;-65
2022/09/05 06:28:04;;;;;;;2.08;1.60;;;23.50;54.90;;;;;;4964237;28;20637;-65
2022/09/05 06:30:38;;;;;;;2.95;1.70;;;23.60;54.70;;;;;;5028130;28;20248;-65
2022/09/05 06:33:13;;;;;;;2.10;1.90;;;23.80;54.40;;;;;;5034485;28;20230;-65
2022/09/05 06:35:59;;;;;;;1.80;1.70;;;23.90;54.00;;;;;;5035896;28;20561;-65
2022/09/05 06:38:41;;;;;;;1.90;1.70;;;24.10;53.50;;;;;;5034441;28;20231;-65
2022/09/05 06:41:19;;;;;;;1.92;1.65;;;24.30;53.20;;;;;;5034662;28;20188;-65
2022/09/05 06:44:30;;;;;;;2.30;2.03;;;24.50;52.90;;;;;;5034523;28;20199;-65
2022/09/05 06:46:57;;;;;;;2.25;1.85;;;24.60;52.40;;;;;;5036894;28;20212;-65
2022/09/05 06:49:27;;;;;;;2.03;1.80;;;24.90;52.10;;;;;;5034471;28;20196;-65
2022/09/05 06:52:36;;;;;;;1.75;1.63;;;24.90;51.70;;;;;;5036000;28;20203;-66
2022/09/05 06:55:29;;;;;;;1.70;1.60;;;25.10;51.40;;;;;;5035459;28;20197;-65
2022/09/05 06:58:10;;;;;;;1.80;1.70;;;25.30;51.10;;;;;;5034114;28;20196;-65
2022/09/05 07:00:37;;;;;;;1.65;1.55;;;25.40;51.10;;;;;;5035633;28;20614;-65
2022/09/05 07:03:18;;;;;;;1.75;1.42;;;25.50;50.40;;;;;;5034332;28;20546;-65
2022/09/05 07:05:50;;;;;;;2.55;1.75;;;25.60;50.20;;;;;;5035396;28;20626;-65
2022/09/05 07:08:22;;;;;;;1.55;1.45;;;25.70;50.20;;;;;;5033906;28;20207;-65
2022/09/05 07:10:54;;;;;;;1.60;1.50;;;25.70;50.20;;;;;;5033945;28;20216;-65
2022/09/05 07:13:23;;;;;;;1.83;1.55;;;25.80;50.20;;;;;;5033779;28;20557;-65
2022/09/05 07:15:54;;;;;;;1.80;1.70;;;25.80;50.10;;;;;;5035089;28;20588;-65
2022/09/05 07:18:25;;;;;;;1.77;1.67;;;25.80;49.90;;;;;;5034960;28;20176;-65
2022/09/05 07:20:54;;;;;;;1.60;1.50;;;25.90;49.80;;;;;;5033687;28;20200;-65
2022/09/05 07:23:39;;;;;;;1.70;1.60;;;25.90;49.50;;;;;;5033882;28;20278;-65
2022/09/05 07:26:07;;;;;;;1.77;1.67;;;26.10;49.40;;;;;;5035139;28;20216;-65
2022/09/05 07:28:34;;;;;;;2.28;1.70;;;26.20;49.20;;;;;;5033873;28;20200;-65
2022/09/05 07:31:03;;;;;;;1.90;1.80;;;26.20;49.10;;;;;;5033703;28;20223;-66
2022/09/05 07:33:30;;;;;;;1.98;1.67;;;26.30;49.00;;;;;;5033212;28;20222;-66
2022/09/05 07:36:02;;;;;;;1.88;1.70;;;26.40;48.70;;;;;;5033320;28;20270;-65
2022/09/05 07:38:30;;;;;;;1.60;1.50;;;26.50;48.50;;;;;;5034658;28;20715;-65
2022/09/05 07:40:59;;;;;;;1.80;1.70;;;26.60;48.40;;;;;;5034454;28;20587;-65
2022/09/05 07:43:29;;;;;;;1.70;1.60;;;26.60;48.20;;;;;;5034508;28;20203;-66
2022/09/05 07:46:05;;;;;;;1.80;1.70;;;26.80;48.00;;;;;;5033241;28;20742;-65
2022/09/05 07:48:33;;;;;;;1.45;1.35;;;26.90;47.90;;;;;;5034425;28;20183;-65
2022/09/05 07:51:03;;;;;;;1.67;1.58;;;26.90;47.70;;;;;;5033159;28;20291;-67
2022/09/05 07:53:30;;;;;;;1.55;1.45;;;27.00;47.60;;;;;;5034699;28;20198;-66
2022/09/05 07:55:57;;;;;;;1.90;1.80;;;27.10;47.40;;;;;;5034586;28;20211;-65
2022/09/05 07:58:35;;;;;;;1.80;1.70;;;27.10;47.10;;;;;;5032938;28;20199;-66
2022/09/05 08:01:02;;;;;;;2.20;2.00;;;27.20;47.20;;;;;;5034297;28;20196;-65
2022/09/05 08:03:29;;;;;;;2.35;1.83;;;27.20;46.70;;;;;;5043363;22;20302;-73
2022/09/05 08:05:59;;;;;;;2.10;1.90;;;27.30;46.60;;;;;;5035006;28;20558;-73
2022/09/05 08:08:30;;;;;;;2.63;2.00;;;27.30;46.60;;;;;;5033281;28;20218;-73
2022/09/05 08:10:58;;;;;;;2.47;1.90;;;27.40;46.60;;;;;;5033347;28;20768;-73
2022/09/05 08:13:27;;;;;;;2.20;2.00;;;27.40;46.60;;;;;;5035398;28;20266;-73
2022/09/05 08:15:55;;;;;;;5.22;2.92;;;27.50;46.70;;;;;;5034227;28;20234;-74
2022/09/05 08:18:25;;;;;;;3.95;3.00;;;27.40;47.70;;;;;;5034337;28;20230;-74
2022/09/05 08:20:54;;;;;;;3.65;2.53;;;27.20;48.30;;;;;;5034391;28;20285;-73
2022/09/05 08:23:37;;;;;;;3.88;2.58;;;27.20;48.50;;;;;;5034098;28;20215;-73
2022/09/05 08:26:07;;;;;;;5.85;2.72;;;27.20;48.80;;;;;;5033965;28;20193;-73
2022/09/05 08:28:38;;;;;;;3.63;2.50;;;27.20;48.60;;;;;;5033350;28;20583;-73
2022/09/05 08:31:08;;;;;;;4.53;2.92;;;27.20;48.60;;;;;;5033146;28;20219;-74
2022/09/05 08:33:35;;;;;;;3.10;2.60;;;27.20;48.80;;;;;;5033576;28;20195;-74
2022/09/05 08:36:04;;;;;;;2.83;2.60;;;27.30;49.00;;;;;;5032922;28;20195;-73
2022/09/05 08:38:34;;;;;;;5.22;2.60;;;27.40;48.20;;;;;;5032970;28;20203;-73
2022/09/05 08:41:05;;;;;;;2.55;2.20;;;27.50;48.10;;;;;;5032780;28;20373;-74
2022/09/05 08:43:33;;;;;;;2.80;2.53;;;27.60;47.70;;;;;;5033086;28;20188;-73
2022/09/05 08:46:01;;;;;;;3.90;2.35;;;27.70;47.50;;;;;;5032969;28;20204;-73
2022/09/05 08:48:44;;;;;;;4.05;2.72;;;27.80;47.20;;;;;;5032922;28;20206;-74
2022/09/05 08:51:18;;;;;;;2.78;2.50;;;27.90;46.90;;;;;;5034311;28;20584;-73
2022/09/05 08:54:17;;;;;;;2.70;2.40;;;27.90;46.90;;;;;;5033577;28;20290;-73
2022/09/05 08:56:51;;;;;;;3.72;2.42;;;27.90;47.10;;;;;;5026618;28;20207;-73
2022/09/05 08:59:27;;;;;;;2.78;2.33;;;28.00;47.00;;;;;;5033407;28;20243;-73
2022/09/05 09:02:18;;;;;;;2.30;2.10;;;28.00;47.00;;;;;;5032929;28;20219;-74
2022/09/05 09:04:46;;;;;;;5.40;2.55;;;28.10;46.70;;;;;;5032787;28;20213;-74
2022/09/05 09:07:18;;;;;;;3.40;2.28;;;28.10;46.70;;;;;;5016012;28;20195;-74
2022/09/05 09:09:51;;;;;;;2.97;2.35;;;28.10;46.70;;;;;;5033264;28;20188;-74
2022/09/05 09:12:32;;;;;;;4.75;2.80;;;28.20;46.60;;;;;;5032827;28;20223;-74
2022/09/05 09:14:59;;;;;;;4.22;2.47;;;28.10;46.30;;;;;;5033361;28;20245;-73
2022/09/05 09:17:40;;;;;;;2.78;2.47;;;28.20;46.40;;;;;;5032425;28;20203;-74
2022/09/05 09:20:32;;;;;;;2.95;2.60;;;28.20;46.30;;;;;;5034350;28;20223;-74
2022/09/05 09:23:01;;;;;;;4.70;2.90;;;28.20;46.10;;;;;;5023634;28;20253;-74
2022/09/05 09:25:36;;;;;;;3.78;2.75;;;28.20;47.00;;;;;;5037505;28;20191;-74
2022/09/05 09:28:41;;;;;;;3.38;2.35;;;28.10;46.50;;;;;;5036272;28;20195;-74
2022/09/05 09:31:11;;;;;;;2.63;2.42;;;28.10;46.60;;;;;;5036258;28;20215;-74
2022/09/05 09:33:41;;;;;;;4.07;2.60;;;28.10;46.50;;;;;;5036620;28;20188;-74
2022/09/05 09:36:13;;;;;;;3.38;2.78;;;28.10;46.70;;;;;;5036196;28;20591;-74
2022/09/05 09:38:45;;;;;;;5.60;2.70;;;28.10;46.90;;;;;;5036213;28;20184;-74
2022/09/05 09:41:39;;;;;;;4.35;2.72;;;28.10;46.80;;;;;;5036749;28;20231;-74
2022/09/05 09:44:36;;;;;;;4.53;2.50;;;28.10;46.60;;;;;;5037268;28;20263;-73
2022/09/05 09:47:04;;;;;;;2.85;2.58;;;28.10;46.80;;;;;;5036177;28;20196;-74
2022/09/05 09:49:42;;;;;;;2.92;2.47;;;28.10;46.90;;;;;;5037003;28;20200;-74
2022/09/05 09:52:44;;;;;;;4.35;2.60;;;28.10;47.10;;;;;;5035842;28;20229;-74
2022/09/05 09:55:46;;;;;;;3.92;2.70;;;28.00;47.10;;;;;;4995152;28;20249;-74
2022/09/05 09:58:35;;;;;;;5.03;2.78;;;28.00;47.40;;;;;;5035971;28;20689;-74
2022/09/05 10:01:09;;;;;;;3.70;2.50;;;28.00;47.40;;;;;;5036347;28;20717;-74
2022/09/05 10:04:00;;;;;;;4.63;2.78;;;27.90;47.40;;;;;;5036995;28;20694;-74
2022/09/05 10:07:01;;;;;;;3.20;2.80;;;27.90;47.60;;;;;;5037395;28;20211;-74
2022/09/05 10:09:37;;;;;;;2.80;2.60;;;27.90;47.60;;;;;;5035699;28;20199;-74
2022/09/05 10:12:55;;;;;;;3.70;2.80;;;27.90;48.00;;;;;;5035446;28;20219;-73
2022/09/05 10:15:26;;;;;;;3.65;2.47;;;27.90;47.80;;;;;;5003081;28;20535;-73
2022/09/05 10:18:16;;;;;;;10.38;2.75;;;27.90;47.80;;;;;;5035286;28;20203;-74
2022/09/05 10:20:54;;;;;;;4.22;2.92;;;27.90;48.00;;;;;;5035638;28;20232;-74
2022/09/05 10:23:54;;;;;;;5.35;2.90;;;27.70;48.40;;;;;;5036854;28;20183;-74
2022/09/05 10:27:01;;;;;;;3.20;2.88;;;27.70;48.50;;;;;;5004298;28;20207;-74
2022/09/05 10:29:43;;;;;;;2.95;2.40;;;27.80;48.50;;;;;;5022574;28;20202;-75
2022/09/05 10:32:15;;;;;;;3.95;2.60;;;27.80;48.50;;;;;;5034889;28;20214;-74
2022/09/05 10:34:46;;;;;;;3.80;2.63;;;27.70;48.30;;;;;;5035059;28;20192;-73
2022/09/05 10:37:13;;;;;;;3.30;2.60;;;27.70;48.30;;;;;;5035260;28;20195;-73
2022/09/05 10:39:41;;;;;;;3.53;2.78;;;27.70;48.50;;;;;;5035222;28;20203;-74
2022/09/05 10:42:12;;;;;;;4.25;2.80;;;27.60;48.40;;;;;;5018300;28;20219;-74
2022/09/05 10:44:44;;;;;;;3.33;2.50;;;27.60;48.20;;;;;;5034918;28;20230;-74
2022/09/05 10:47:18;;;;;;;3.45;2.33;;;27.60;48.30;;;;;;5035278;28;20195;-74
2022/09/05 10:49:47;;;;;;;2.85;2.50;;;27.60;48.50;;;;;;5035393;28;20192;-74
2022/09/05 10:52:15;;;;;;;2.90;2.55;;;27.50;48.80;;;;;;5035076;28;20219;-74
2022/09/05 10:55:02;;;;;;;5.90;2.70;;;27.50;48.90;;;;;;5034853;28;20657;-73
2022/09/05 10:57:35;;;;;;;4.45;2.38;;;27.50;48.80;;;;;;5035695;28;20196;-73
2022/09/05 11:00:22;;;;;;;3.25;2.75;;;27.50;48.70;;;;;;5034692;28;20199;-74
2022/09/05 11:02:53;;;;;;;3.20;2.33;;;27.40;49.30;;;;;;5035888;28;20183;-75
2022/09/05 11:05:22;;;;;;;5.47;2.63;;;27.40;49.20;;;;;;5034320;28;20206;-74
2022/09/05 11:07:57;;;;;;;3.60;2.50;;;27.40;49.00;;;;;;5034340;28;20195;-74
2022/09/05 11:10:28;;;;;;;3.72;2.72;;;27.40;49.50;;;;;;5034797;28;20638;-74
2022/09/05 11:13:01;;;;;;;2.50;2.30;;;27.40;49.70;;;;;;5034463;28;20218;-74
2022/09/05 11:15:31;;;;;;;2.65;2.25;;;27.40;48.70;;;;;;5018273;28;20671;-74
2022/09/05 11:18:02;;;;;;;4.18;2.58;;;27.40;48.30;;;;;;5034175;28;20188;-74
2022/09/05 11:20:40;;;;;;;2.83;2.33;;;27.40;47.60;;;;;;5034228;28;20231;-74
2022/09/05 11:23:10;;;;;;;2.45;2.25;;;27.40;47.40;;;;;;5034497;28;20647;-74
2022/09/05 11:25:38;;;;;;;2.10;1.90;;;27.40;46.90;;;;;;5034232;28;20199;-74
2022/09/05 11:28:09;;;;;;;2.72;2.38;;;27.40;46.70;;;;;;5034031;28;20230;-74
2022/09/05 11:30:39;;;;;;;2.28;2.05;;;27.40;46.40;;;;;;5034179;28;20219;-73
2022/09/05 11:33:15;;;;;;;2.35;2.15;;;27.30;46.60;;;;;;5033950;28;20199;-73
2022/09/05 11:35:42;;;;;;;3.65;2.08;;;27.30;46.60;;;;;;5033906;28;20224;-73
2022/09/05 11:38:45;;;;;;;2.42;2.22;;;27.30;47.00;;;;;;5034194;28;20199;-74
2022/09/05 11:41:51;;;;;;;2.47;2.25;;;27.30;47.20;;;;;;5017180;28;20630;-74
2022/09/05 11:44:27;;;;;;;3.40;2.30;;;27.30;47.50;;;;;;4990261;28;20199;-74
2022/09/05 11:47:04;;;;;;;2.60;1.95;;;27.30;47.60;;;;;;5034909;28;20191;-73
2022/09/05 11:50:04;;;;;;;3.50;2.30;;;27.30;47.70;;;;;;5034868;28;20600;-74
2022/09/05 11:53:07;;;;;;;2.40;2.20;;;27.20;47.80;;;;;;5017703;28;20573;-74
2022/09/05 11:56:06;;;;;;;2.72;2.20;;;27.30;48.00;;;;;;5009103;28;20199;-73
2022/09/05 11:58:59;;;;;;;2.45;2.25;;;27.20;48.00;;;;;;5033457;28;20195;-73
2022/09/05 12:01:27;;;;;;;2.72;2.22;;;27.20;48.10;;;;;;5034393;28;20211;-73
2022/09/05 12:04:18;;;;;;;2.28;2.08;;;27.20;48.10;;;;;;5033705;28;20211;-73
2022/09/05 12:07:08;;;;;;;2.28;2.08;;;27.20;48.20;;;;;;5033239;28;20638;-74
2022/09/05 12:09:44;;;;;;;2.30;1.88;;;27.20;48.30;;;;;;5033311;28;20290;-73
2022/09/05 12:12:25;;;;;;;2.03;1.80;;;27.20;48.40;;;;;;5033406;28;20218;-74
2022/09/05 12:15:12;;;;;;;2.17;1.98;;;27.20;48.40;;;;;;5034283;28;20194;-73
2022/09/05 12:17:45;;;;;;;2.03;1.92;;;27.20;48.50;;;;;;5013448;28;20211;-73
2022/09/05 12:20:14;;;;;;;2.25;2.05;;;27.20;48.60;;;;;;5033755;28;20218;-74
2022/09/05 12:22:45;;;;;;;2.78;2.00;;;27.20;48.60;;;;;;5033007;28;20211;-73
2022/09/05 12:25:27;;;;;;;2.63;2.15;;;27.10;48.60;;;;;;5033104;28;20584;-73
2022/09/05 12:27:56;;;;;;;1.80;1.70;;;27.10;48.70;;;;;;5017153;28;20257;-73
2022/09/05 12:30:25;;;;;;;2.08;1.98;;;27.10;48.80;;;;;;5016606;28;20199;-73
2022/09/05 12:32:52;;;;;;;1.90;1.80;;;27.10;48.80;;;;;;5032940;28;20195;-73
2022/09/05 12:35:24;;;;;;;2.10;2.00;;;27.10;48.80;;;;;;5032890;28;20203;-73
2022/09/05 12:37:55;;;;;;;2.47;1.95;;;27.10;48.90;;;;;;5034485;28;20179;-73
2022/09/05 12:40:25;;;;;;;2.97;1.90;;;27.10;49.00;;;;;;5032969;28;20637;-73
2022/09/05 12:42:53;;;;;;;2.72;1.77;;;27.10;49.00;;;;;;5034411;28;20207;-73
2022/09/05 12:45:25;;;;;;;2.25;2.05;;;27.00;49.00;;;;;;5033293;28;20200;-73
2022/09/05 12:47:58;;;;;;;2.35;2.00;;;27.00;49.10;;;;;;5034995;28;20246;-73
2022/09/05 12:50:32;;;;;;;1.98;1.80;;;27.00;49.30;;;;;;5034952;28;20202;-73
2022/09/05 12:53:02;;;;;;;2.05;1.95;;;26.90;49.30;;;;;;5032869;28;20278;-73
2022/09/05 12:55:31;;;;;;;2.00;1.90;;;26.90;49.40;;;;;;5034174;28;20168;-74
2022/09/05 12:58:00;;;;;;;2.85;1.83;;;26.90;49.40;;;;;;5032706;28;20203;-73
2022/09/05 13:00:26;;;;;;;2.20;2.00;;;26.90;49.50;;;;;;5032829;28;20195;-73
2022/09/05 13:02:55;;;;;;;2.08;1.98;;;26.90;49.50;;;;;;5033109;28;20253;-73
2022/09/05 13:05:25;;;;;;;2.15;1.95;;;26.90;49.50;;;;;;5032592;28;20642;-74
2022/09/05 13:07:57;;;;;;;1.90;1.80;;;26.90;49.50;;;;;;5032777;28;20195;-73
2022/09/05 13:10:32;;;;;;;1.90;1.70;;;26.90;49.60;;;;;;5034894;28;20206;-72
2022/09/05 13:13:02;;;;;;;2.20;2.00;;;26.90;49.60;;;;;;5033560;28;20249;-73
2022/09/05 13:15:34;;;;;;;1.95;1.75;;;26.90;49.60;;;;;;5032486;28;20253;-73
2022/09/05 13:18:06;;;;;;;2.13;1.88;;;26.90;49.60;;;;;;5032575;28;20195;-73
2022/09/05 13:20:35;;;;;;;2.90;1.80;;;26.90;49.60;;;;;;5032346;28;20720;-73
2022/09/05 13:23:06;;;;;;;1.80;1.70;;;26.90;49.60;;;;;;5032381;28;20727;-74
2022/09/05 13:25:35;;;;;;;2.10;1.85;;;26.90;49.60;;;;;;5033598;28;20180;-74
2022/09/05 13:28:05;;;;;;;1.80;1.70;;;26.90;49.70;;;;;;5032215;28;20677;-73
2022/09/05 13:30:35;;;;;;;2.03;1.83;;;26.80;49.80;;;;;;5032336;28;20215;-74
2022/09/05 13:33:03;;;;;;;1.80;1.70;;;26.80;49.90;;;;;;5032266;28;20196;-74
2022/09/05 13:35:35;;;;;;;2.40;1.80;;;26.80;50.00;;;;;;5032326;28;20282;-73
2022/09/05 13:38:05;;;;;;;2.03;1.80;;;26.80;50.00;;;;;;5032326;28;20192;-73